Terminal Aerodrome Forecast
Issued by NWS

Home | Current Version | Previous Version | Graphics & Text | Print | Product List | Glossary On
Versions: 1 2 3 4 5 6 7 8 9 10 11
000
FTUS45 KGGW 181120
TAFGDV
TAF
KGDV 181120Z 1812/1912 02017KT 3SM -SN BLSN OVC010
     FM181800 02012KT P6SM BKN015=

USA.gov is the U.S. government's official web portal to all federal, state and local government web resources and services.